Beechwood, Michigan
Current Conditions -  °F | °C
As of 8:55 AM on Monday 24 Nov 2014 (Local Time) from KLNL Reporting Station
Haze Haze  
Wind Chill: 25°   Ceiling: 800
Heat Index: 33°   Visibility: 2.5mi
Dew Point: 33°   Wind: 12mph
Humidity: 100%   Direction: 340°NNW
Pressure: 29.1"   Gusts: 21mph
Location:  46.2163°N, 88.7676°W
Report Text: KLNL 241455Z AUTO 34010G18KT 2 1/2SM BR OVC008 01/01 A2910 RMK AO2 T00070007
Loading
Personal Weather Stations






























Interactive Weather Map New forecast layout! Learn more

10-Day Weather Forecast

Advertisements
Track Severe Weather on mobile